Battle Mountain, NV

1:29 AM PDT on September 05, 2015 (GMT -0700)
Battle Mountain | | Change Station
CLOSE
Current Station
Personal Weather Station
Location: Battle Mountain, NV
Elevation: 4523 ft
Nearby Weather Stations
Active Advisory: Freeze Watch

Elev 4523 ft 40.64 °N, 116.94 °W | Updated 3 seconds ago

Partly Cloudy
Partly Cloudy
48.4 °F
Feels Like 47 °F
N
3.6
Wind Variable Wind from NE
Gusts 3.6 mph

Today
High -- | Low -- °F
--% Chance of Precip.
Yesterday
High -- | Low -- °F
Precip. -- in
6:17 AM 7:13 PM
Waning Gibbous, 51% visible
Pressure 29.89 in
Visibility 10.0 miles
Clouds Clear
Windchill 47 °F
Dew Point 21 °F
Humidity 34%
Rainfall 0.00 in
Snow Depth Not available.
UV 0 out of 12
Pollen 7.90 out of 12
Air Quality Not available.
Flu Activity Not available.
METAR KWMC 050756Z AUTO 00000KT 10SM CLR 03/M05 A2995 RMK AO2 SLP120 T00281050 402390028
Pressure 29.89 in
Visibility 10.0 miles
Clouds Clear
Windchill 47 °F
Dew Point 21 °F
Humidity 34%
Rainfall 0.00 in
Snow Depth Not available.
UV 0 out of 12
Pollen 7.90 out of 12
Air Quality Not available.
Flu Activity Not available.
METAR KWMC 050756Z AUTO 00000KT 10SM CLR 03/M05 A2995 RMK AO2 SLP120 T00281050 402390028

10-Day Weather Forecast

×

Almanac

Astronomy

Sep. 05, 2015 Rise Set
Actual Time
Civil Twilight
Nautical Twilight
Astronomical Twilight
Moon
Length of Visible Light
Length of Day
Tomorrow will be .
, % of the Moon is Illuminated

Today's Extremes

State Highs State Lows

Community

WunderPhotos

Upload Photos

1,852,439 photos uploaded!

WunderBlogs® & News

Nearby

Air Quality

  Air Quality AQ Index Pollutant
Not available.

Snow Depth

Station Depth Elevation

Earthquake Activity

City Distance Mag. Time & Date
Minimum magnitude displayed is 2.5.

Coastal Water Temperatures

Place Temperature

Stations

Nearby Weather Stations

Station Location Temp. Windchill Dew Point Humidity Wind Precip. Elev Updated Type
                   
Freeze Watch
Statement as of 7:54 PM PDT on September 04, 2015

... Freeze watch remains in effect from late Saturday night
through Sunday morning...

A freeze watch remains in effect from late Saturday night through
Sunday morning.

* Temperatures... upper 20s to low 30s.

* Timing... temperatures will cool into the 30s after midnight
with the lowest temperatures being reached between 4am and
6am.

* Locations include: Jackpot... Wildhorse... Owyhee... Austin...
Austin Summit... Eureka... Diamond Valley... Pinto Summit...
Battle Mountain... Emigrant Pass... Wells... Pequop Summit...
Elko... Spring Creek... Carlin

* duration... below freezing temperatures will last only a few
hours early Sunday morning.

* Impacts... gardens and other outdoor plants that are
temperatures sensitive may suffer damage.

Precautionary/preparedness actions...

A freeze watch means sub-freezing temperatures are possible.
These conditions could kill crops and other sensitive vegetation.